createdAt,value
2023-03-14T00:01:12.767Z,12.26
2023-03-14T00:03:41.095Z,12.24
2023-03-14T00:06:10.235Z,12.26
2023-03-14T00:08:38.655Z,12.28
2023-03-14T00:11:18.460Z,12.27
2023-03-14T00:13:51.021Z,12.30
2023-03-14T00:16:21.774Z,12.27
2023-03-14T00:18:49.845Z,12.32
2023-03-14T00:21:18.248Z,12.34
2023-03-14T00:23:46.275Z,12.33
2023-03-14T00:26:16.991Z,12.26
2023-03-14T00:28:45.516Z,12.25
2023-03-14T00:31:16.065Z,12.25
2023-03-14T00:33:45.749Z,12.29
2023-03-14T00:36:18.128Z,12.32
2023-03-14T00:38:48.816Z,12.31
2023-03-14T00:41:19.714Z,12.35
2023-03-14T00:43:49.299Z,12.38
2023-03-14T00:46:17.412Z,12.41
2023-03-14T00:48:47.035Z,12.43
2023-03-14T00:51:16.429Z,12.43
2023-03-14T00:53:45.211Z,12.49
2023-03-14T00:56:14.139Z,12.53
2023-03-14T00:58:41.956Z,12.58
2023-03-14T01:01:13.617Z,12.56
2023-03-14T01:03:41.663Z,12.59
2023-03-14T01:06:12.822Z,12.62
2023-03-14T01:08:41.148Z,12.66
2023-03-14T01:11:16.351Z,12.64
2023-03-14T01:13:44.237Z,12.62
2023-03-14T01:16:13.474Z,12.63
2023-03-14T01:18:44.656Z,12.59
2023-03-14T01:21:16.351Z,12.60
2023-03-14T01:23:45.612Z,12.53
2023-03-14T01:26:16.661Z,12.41
2023-03-14T01:28:44.493Z,12.40
2023-03-14T01:31:13.862Z,12.33
2023-03-14T01:33:42.149Z,12.33
2023-03-14T01:36:11.527Z,12.30
2023-03-14T01:38:41.022Z,12.29
2023-03-14T01:41:26.083Z,12.30
2023-03-14T01:43:55.346Z,12.26
2023-03-14T01:46:31.578Z,12.24
2023-03-14T01:49:15.298Z,12.22
2023-03-14T01:52:23.828Z,12.25
2023-03-14T01:55:06.850Z,12.26
2023-03-14T01:57:44.159Z,12.22
2023-03-14T02:00:18.002Z,12.15
2023-03-14T02:02:48.642Z,12.13
2023-03-14T02:05:24.078Z,12.09
2023-03-14T02:08:00.040Z,12.00
2023-03-14T02:10:38.097Z,11.95
2023-03-14T02:13:06.768Z,11.91
2023-03-14T02:15:47.150Z,11.86
2023-03-14T02:18:35.239Z,11.83
2023-03-14T02:21:20.016Z,11.84
2023-03-14T02:24:06.979Z,11.82
2023-03-14T02:27:09.428Z,11.80
2023-03-14T02:29:48.262Z,11.74
2023-03-14T02:32:18.853Z,11.68
2023-03-14T02:34:51.039Z,11.65
2023-03-14T02:37:22.857Z,11.64
2023-03-14T02:39:50.686Z,11.62
2023-03-14T02:42:19.673Z,11.60
2023-03-14T02:45:16.727Z,11.62
2023-03-14T02:47:52.753Z,11.67
2023-03-14T02:50:23.509Z,11.67
2023-03-14T02:52:51.654Z,11.64
2023-03-14T02:55:23.860Z,11.59
2023-03-14T02:57:52.474Z,11.61
2023-03-14T03:00:20.726Z,11.57
2023-03-14T03:02:48.601Z,11.47
2023-03-14T03:05:16.683Z,11.49
2023-03-14T03:07:44.533Z,11.43
2023-03-14T03:10:12.811Z,11.39
2023-03-14T03:12:40.765Z,11.29
2023-03-14T03:15:09.024Z,11.32
2023-03-14T03:17:37.751Z,11.34
2023-03-14T03:20:10.239Z,11.34
2023-03-14T03:22:40.777Z,11.34
2023-03-14T03:25:11.537Z,11.33
2023-03-14T03:27:39.563Z,11.32
2023-03-14T03:30:09.538Z,11.35
2023-03-14T03:32:37.758Z,11.33
2023-03-14T03:35:07.573Z,11.18
2023-03-14T03:37:38.378Z,11.03
2023-03-14T03:40:08.646Z,10.93
2023-03-14T03:42:37.226Z,10.86
2023-03-14T03:45:06.028Z,10.84
2023-03-14T03:47:35.605Z,10.79
2023-03-14T03:50:04.948Z,10.74
2023-03-14T03:52:33.557Z,10.64
2023-03-14T03:55:01.507Z,10.61
2023-03-14T03:57:30.147Z,10.55
2023-03-14T03:59:58.022Z,10.51
2023-03-14T04:02:25.827Z,10.52
2023-03-14T04:04:54.156Z,10.42
2023-03-14T04:07:22.087Z,10.37
2023-03-14T04:09:50.611Z,10.29
2023-03-14T04:12:47.396Z,10.15
2023-03-14T04:15:20.409Z,10.10
2023-03-14T04:17:57.011Z,10.04
2023-03-14T04:20:25.054Z,9.99
2023-03-14T04:22:53.506Z,9.94
2023-03-14T04:25:21.455Z,9.84
2023-03-14T04:27:54.174Z,9.77
2023-03-14T04:30:26.046Z,9.72
2023-03-14T04:33:03.722Z,9.68
2023-03-14T04:35:33.896Z,9.65
2023-03-14T04:38:06.428Z,9.59
2023-03-14T04:40:38.458Z,9.58
2023-03-14T04:43:09.315Z,9.56
2023-03-14T04:45:37.909Z,9.51
2023-03-14T04:48:08.818Z,9.44
2023-03-14T04:50:36.796Z,9.34
2023-03-14T04:53:04.673Z,9.30
2023-03-14T04:55:35.799Z,9.30
2023-03-14T04:58:03.828Z,9.24
2023-03-14T05:00:31.898Z,9.23
2023-03-14T05:03:10.186Z,9.19
2023-03-14T05:05:58.494Z,9.13
2023-03-14T05:08:45.997Z,9.11
2023-03-14T05:11:33.752Z,9.10
2023-03-14T05:14:16.753Z,9.11
2023-03-14T05:17:03.503Z,9.06
2023-03-14T05:20:10.200Z,8.99
2023-03-14T05:22:56.709Z,8.99
2023-03-14T05:26:03.218Z,8.96
2023-03-14T05:28:40.563Z,8.91
2023-03-14T05:31:14.724Z,8.94
2023-03-14T05:34:01.047Z,9.02
2023-03-14T05:36:58.309Z,9.05
2023-03-14T05:39:49.246Z,9.06
2023-03-14T05:42:34.411Z,9.10
2023-03-14T05:45:19.223Z,9.18
2023-03-14T05:48:03.651Z,9.22
2023-03-14T05:50:48.467Z,9.26
2023-03-14T05:53:24.601Z,9.28
2023-03-14T05:56:11.380Z,9.38
2023-03-14T05:59:08.599Z,9.44
2023-03-14T06:01:59.645Z,9.42
2023-03-14T06:04:29.090Z,9.45
2023-03-14T06:06:59.802Z,9.47
2023-03-14T06:09:27.662Z,9.48
2023-03-14T06:11:57.600Z,9.51
2023-03-14T06:14:25.684Z,9.53
2023-03-14T06:16:54.267Z,9.56
2023-03-14T06:19:23.316Z,9.60
2023-03-14T06:21:51.375Z,9.70
2023-03-14T06:24:19.311Z,9.78
2023-03-14T06:26:48.697Z,9.83
2023-03-14T06:29:16.689Z,9.93
2023-03-14T06:31:45.214Z,10.01
2023-03-14T06:34:16.244Z,10.10
2023-03-14T06:36:45.177Z,10.23
2023-03-14T06:39:13.196Z,10.28
2023-03-14T06:41:43.863Z,10.37
2023-03-14T06:44:12.071Z,10.47
2023-03-14T06:46:40.015Z,10.57
2023-03-14T06:49:07.920Z,10.63
2023-03-14T06:51:35.889Z,10.72
2023-03-14T06:54:05.365Z,10.80
2023-03-14T06:56:33.610Z,10.90
2023-03-14T06:59:01.804Z,11.01
2023-03-14T07:01:33.852Z,11.07
2023-03-14T07:04:10.610Z,11.14
2023-03-14T07:06:45.297Z,11.25
2023-03-14T07:09:13.539Z,11.36
2023-03-14T07:11:44.743Z,11.47
2023-03-14T07:14:13.222Z,11.56
2023-03-14T07:16:41.064Z,11.66
2023-03-14T07:19:09.049Z,11.73
2023-03-14T07:21:37.690Z,11.80
2023-03-14T07:24:08.903Z,11.82
2023-03-14T07:26:36.934Z,11.92
2023-03-14T07:29:04.921Z,11.97
2023-03-14T07:31:33.202Z,12.02
2023-03-14T07:34:01.443Z,12.08
2023-03-14T07:36:33.318Z,12.12
2023-03-14T07:39:01.215Z,12.18
2023-03-14T07:41:41.736Z,12.17
2023-03-14T07:44:41.842Z,12.24
2023-03-14T07:47:10.474Z,12.28
2023-03-14T07:49:38.799Z,12.31
2023-03-14T07:52:06.830Z,12.40
2023-03-14T07:54:34.673Z,12.44
2023-03-14T07:57:02.858Z,12.52
2023-03-14T07:59:31.319Z,12.61
2023-03-14T08:01:59.776Z,12.70
2023-03-14T08:04:28.504Z,12.77
2023-03-14T08:06:56.307Z,12.81
2023-03-14T08:09:24.332Z,12.88
2023-03-14T08:11:52.126Z,12.97
2023-03-14T08:14:20.028Z,13.03
2023-03-14T08:16:48.151Z,13.07
2023-03-14T08:19:15.965Z,13.13
2023-03-14T08:21:44.410Z,13.25
2023-03-14T08:24:12.281Z,13.35
2023-03-14T08:26:40.282Z,13.43
2023-03-14T08:29:09.181Z,13.51
2023-03-14T08:31:37.066Z,13.55
2023-03-14T08:34:05.200Z,13.69
2023-03-14T08:36:33.631Z,13.72
2023-03-14T08:39:01.590Z,13.80
2023-03-14T08:41:29.649Z,13.92
2023-03-14T08:43:57.621Z,13.96
2023-03-14T08:46:25.600Z,14.06
2023-03-14T08:48:53.394Z,14.15
2023-03-14T08:51:21.267Z,14.32
2023-03-14T08:53:49.072Z,14.44
2023-03-14T08:56:16.911Z,14.51
2023-03-14T08:58:45.046Z,14.48
2023-03-14T09:01:13.265Z,14.46
2023-03-14T09:03:41.162Z,14.45
2023-03-14T09:06:10.973Z,14.47
2023-03-14T09:08:39.682Z,14.45
2023-03-14T09:11:09.686Z,14.40
2023-03-14T09:13:37.778Z,14.43
2023-03-14T09:16:07.408Z,14.53
2023-03-14T09:18:35.715Z,14.61
2023-03-14T09:21:04.043Z,14.68
2023-03-14T09:23:32.381Z,14.69
2023-03-14T09:26:01.244Z,14.62
2023-03-14T09:28:29.699Z,14.59
2023-03-14T09:30:57.591Z,14.59
2023-03-14T09:33:25.552Z,14.59
2023-03-14T09:35:53.505Z,14.58
2023-03-14T09:38:21.901Z,14.59
2023-03-14T09:40:50.676Z,14.65
2023-03-14T09:43:18.686Z,14.72
2023-03-14T09:45:49.597Z,14.86
2023-03-14T09:48:22.260Z,14.83
2023-03-14T09:50:53.749Z,14.79
2023-03-14T09:53:27.124Z,14.79
2023-03-14T09:55:56.369Z,14.83
2023-03-14T09:58:25.608Z,14.84
2023-03-14T10:00:57.511Z,14.85
2023-03-14T10:03:30.610Z,14.97
2023-03-14T10:05:58.484Z,14.97
2023-03-14T10:08:27.470Z,15.02
2023-03-14T10:10:55.748Z,15.04
2023-03-14T10:13:30.419Z,15.07
2023-03-14T10:16:05.262Z,15.09
2023-03-14T10:18:36.861Z,15.13
2023-03-14T10:21:17.833Z,15.19
2023-03-14T10:23:47.997Z,15.21
2023-03-14T10:26:29.021Z,15.30
2023-03-14T10:29:14.053Z,15.32
2023-03-14T10:31:53.277Z,15.35
2023-03-14T10:34:30.721Z,15.53
2023-03-14T10:37:06.673Z,15.51
2023-03-14T10:39:40.228Z,15.50
2023-03-14T10:42:14.669Z,15.51
2023-03-14T10:44:43.253Z,15.48
2023-03-14T10:47:21.535Z,15.54
2023-03-14T10:49:49.700Z,15.54
2023-03-14T10:52:57.406Z,15.46
2023-03-14T10:55:17.933Z,15.39
2023-03-14T10:57:45.915Z,15.27
2023-03-14T11:00:23.128Z,15.19
2023-03-14T11:02:54.070Z,15.13
2023-03-14T11:05:41.056Z,15.11
2023-03-14T11:08:30.585Z,15.14
2023-03-14T11:11:23.167Z,15.09
2023-03-14T11:14:08.640Z,14.97
2023-03-14T11:16:59.789Z,14.88
2023-03-14T11:19:39.415Z,14.83
2023-03-14T11:22:40.448Z,14.76
2023-03-14T11:25:27.351Z,14.76
2023-03-14T11:28:08.915Z,14.89
2023-03-14T11:30:47.474Z,15.05
2023-03-14T11:33:26.184Z,15.16
2023-03-14T11:36:12.946Z,15.37
2023-03-14T11:38:53.817Z,15.44
2023-03-14T11:41:27.062Z,15.50
2023-03-14T11:43:57.987Z,15.52
2023-03-14T11:46:27.929Z,15.48
2023-03-14T11:49:23.309Z,15.40
2023-03-14T11:51:53.168Z,15.36
2023-03-14T11:54:36.468Z,15.45
2023-03-14T11:57:06.944Z,15.55
2023-03-14T12:00:13.783Z,15.55
2023-03-14T12:02:41.634Z,15.57
2023-03-14T12:05:43.632Z,15.50
2023-03-14T12:08:17.321Z,15.49
2023-03-14T12:10:48.122Z,15.55
2023-03-14T12:13:17.833Z,15.69
2023-03-14T12:16:00.784Z,15.84
2023-03-14T12:18:40.555Z,15.83
2023-03-14T12:21:12.176Z,15.77
2023-03-14T12:23:52.700Z,15.82
2023-03-14T12:26:44.256Z,15.90
2023-03-14T12:29:19.093Z,15.98
2023-03-14T12:31:50.002Z,16.03
2023-03-14T12:34:17.938Z,16.09
2023-03-14T12:36:55.400Z,16.08
2023-03-14T12:39:38.890Z,16.06
2023-03-14T12:42:11.711Z,16.05
2023-03-14T12:44:50.316Z,16.11
2023-03-14T12:47:21.049Z,16.20
2023-03-14T12:49:58.310Z,16.33
2023-03-14T12:52:44.663Z,16.44
2023-03-14T12:55:37.290Z,16.50
2023-03-14T12:58:39.888Z,16.62
2023-03-14T13:01:15.878Z,16.69
2023-03-14T13:03:46.564Z,16.55
2023-03-14T13:06:55.062Z,16.46
2023-03-14T13:09:28.796Z,16.31
2023-03-14T13:12:02.876Z,16.37
2023-03-14T13:14:32.361Z,16.38
2023-03-14T13:17:10.429Z,16.29
2023-03-14T13:19:57.355Z,16.19
2023-03-14T13:22:29.896Z,16.17
2023-03-14T13:25:03.293Z,16.15
2023-03-14T13:27:34.217Z,16.14
2023-03-14T13:30:16.794Z,16.11
2023-03-14T13:32:48.777Z,15.99
2023-03-14T13:35:46.147Z,15.90
2023-03-14T13:38:19.306Z,15.88
2023-03-14T13:40:48.511Z,15.82
2023-03-14T13:43:16.391Z,15.70
2023-03-14T13:45:50.454Z,15.68
2023-03-14T13:48:19.561Z,15.67
2023-03-14T13:50:53.292Z,15.64
2023-03-14T13:53:21.410Z,15.61
2023-03-14T13:55:51.376Z,15.54
2023-03-14T13:58:31.546Z,15.49
2023-03-14T14:01:12.698Z,15.39
2023-03-14T14:03:42.893Z,15.28
2023-03-14T14:06:28.284Z,15.22
2023-03-14T14:08:58.623Z,15.09
2023-03-14T14:11:48.917Z,15.05
2023-03-14T14:14:32.559Z,15.12
2023-03-14T14:17:02.714Z,15.35
2023-03-14T14:19:34.219Z,15.54
2023-03-14T14:22:03.879Z,15.63
2023-03-14T14:24:33.591Z,15.61
2023-03-14T14:27:09.532Z,15.45
2023-03-14T14:29:37.286Z,15.26
2023-03-14T14:32:08.113Z,15.03
2023-03-14T14:34:50.865Z,14.79
2023-03-14T14:37:28.668Z,14.60
2023-03-14T14:39:59.963Z,14.44
2023-03-14T14:42:32.764Z,14.35
2023-03-14T14:45:04.040Z,14.38
2023-03-14T14:47:32.129Z,14.40
2023-03-14T14:50:04.474Z,14.38
2023-03-14T14:52:39.210Z,14.35
2023-03-14T14:55:20.726Z,14.37
2023-03-14T14:57:57.689Z,14.41
2023-03-14T15:00:28.109Z,14.47
2023-03-14T15:03:00.019Z,14.49
2023-03-14T15:05:31.378Z,14.55
2023-03-14T15:07:59.236Z,14.63
2023-03-14T15:10:27.404Z,14.73
2023-03-14T15:12:55.780Z,14.74
2023-03-14T15:15:23.586Z,14.69
2023-03-14T15:17:51.506Z,14.63
2023-03-14T15:20:20.596Z,14.58
2023-03-14T15:22:48.550Z,14.58
2023-03-14T15:25:39.926Z,14.56
2023-03-14T15:28:04.814Z,14.64
2023-03-14T15:30:32.765Z,14.75
2023-03-14T15:33:00.713Z,14.83
2023-03-14T15:35:28.625Z,14.84
2023-03-14T15:37:56.485Z,14.86
2023-03-14T15:40:25.704Z,14.86
2023-03-14T15:42:53.554Z,14.83
2023-03-14T15:45:21.414Z,14.84
2023-03-14T15:47:49.329Z,14.84
2023-03-14T15:50:17.413Z,14.79
2023-03-14T15:52:45.219Z,14.66
2023-03-14T15:55:13.201Z,14.50
2023-03-14T15:57:43.968Z,14.41
2023-03-14T16:00:19.565Z,14.31
2023-03-14T16:02:47.360Z,14.18
2023-03-14T16:05:16.839Z,14.08
2023-03-14T16:07:45.007Z,14.04
2023-03-14T16:10:14.476Z,13.96
2023-03-14T16:12:43.181Z,13.89
2023-03-14T16:15:11.324Z,13.81
2023-03-14T16:17:41.247Z,13.76
2023-03-14T16:20:09.709Z,13.71
2023-03-14T16:22:37.595Z,13.67
2023-03-14T16:25:07.330Z,13.61
2023-03-14T16:27:35.310Z,13.56
2023-03-14T16:30:04.379Z,13.53
2023-03-14T16:32:32.437Z,13.50
2023-03-14T16:35:00.459Z,13.45
2023-03-14T16:37:28.473Z,13.42
2023-03-14T16:40:11.576Z,13.39
2023-03-14T16:42:59.705Z,13.37
2023-03-14T16:45:28.930Z,13.29
2023-03-14T16:47:56.884Z,13.25
2023-03-14T16:50:24.779Z,13.24
2023-03-14T16:52:52.740Z,13.16
2023-03-14T16:55:20.865Z,13.16
2023-03-14T16:57:48.846Z,13.13
2023-03-14T17:00:17.221Z,13.09
2023-03-14T17:02:45.145Z,13.08
2023-03-14T17:05:13.132Z,13.05
2023-03-14T17:07:41.572Z,13.00
2023-03-14T17:10:11.370Z,12.98
2023-03-14T17:12:39.171Z,13.00
2023-03-14T17:15:08.003Z,12.96
2023-03-14T17:17:35.993Z,12.93
2023-03-14T17:20:05.958Z,12.91
2023-03-14T17:22:34.059Z,12.87
2023-03-14T17:25:02.521Z,12.83
2023-03-14T17:27:30.578Z,12.74
2023-03-14T17:29:58.366Z,12.70
2023-03-14T17:32:26.833Z,12.57
2023-03-14T17:34:54.839Z,12.40
2023-03-14T17:37:22.921Z,12.22
2023-03-14T17:39:50.816Z,12.05
2023-03-14T17:42:18.928Z,11.89
2023-03-14T17:44:46.780Z,11.73
2023-03-14T17:47:14.593Z,11.63
2023-03-14T17:49:42.623Z,11.49
2023-03-14T17:52:12.906Z,11.36
2023-03-14T17:54:41.127Z,11.30
2023-03-14T17:57:09.326Z,11.27
2023-03-14T17:59:37.149Z,11.23
2023-03-14T18:02:05.426Z,11.15
2023-03-14T18:04:33.520Z,11.09
2023-03-14T18:07:01.732Z,11.04
2023-03-14T18:09:29.538Z,11.04
2023-03-14T18:12:07.155Z,11.00
2023-03-14T18:14:37.286Z,10.97
2023-03-14T18:17:06.193Z,10.94
2023-03-14T18:19:34.411Z,10.89
2023-03-14T18:22:02.221Z,10.87
2023-03-14T18:24:30.482Z,10.85
2023-03-14T18:26:58.384Z,10.82
2023-03-14T18:29:26.356Z,10.82
2023-03-14T18:31:56.949Z,10.80
2023-03-14T18:34:25.708Z,10.77
2023-03-14T18:36:54.018Z,10.77
2023-03-14T18:39:22.288Z,10.69
2023-03-14T18:41:50.774Z,10.70
2023-03-14T18:44:18.998Z,10.69
2023-03-14T18:46:48.749Z,10.71
2023-03-14T18:49:16.766Z,10.67
2023-03-14T18:51:44.917Z,10.63
2023-03-14T18:54:13.061Z,10.60
2023-03-14T18:56:41.560Z,10.61
2023-03-14T18:59:10.617Z,10.60
2023-03-14T19:01:39.380Z,10.57
2023-03-14T19:04:09.510Z,10.55
2023-03-14T19:06:38.770Z,10.52
2023-03-14T19:09:07.007Z,10.49
2023-03-14T19:11:34.861Z,10.50
2023-03-14T19:14:03.934Z,10.47
2023-03-14T19:16:32.435Z,10.40
2023-03-14T19:19:00.990Z,10.38
2023-03-14T19:21:31.715Z,10.40
2023-03-14T19:23:59.942Z,10.45
2023-03-14T19:26:30.159Z,10.43
2023-03-14T19:28:59.087Z,10.44
2023-03-14T19:31:27.790Z,10.14
2023-03-14T19:33:55.662Z,9.08
2023-03-14T19:36:26.873Z,8.27
2023-03-14T19:38:55.226Z,7.54
2023-03-14T19:41:25.440Z,6.94
2023-03-14T19:43:53.457Z,6.68
2023-03-14T19:46:22.876Z,6.20
2023-03-14T19:48:54.512Z,5.87
2023-03-14T19:51:23.116Z,5.63
2023-03-14T19:53:51.809Z,5.25
2023-03-14T19:56:21.023Z,4.72
2023-03-14T19:58:49.305Z,4.28
2023-03-14T20:01:17.169Z,3.93
2023-03-14T20:03:45.126Z,3.66
2023-03-14T20:06:13.271Z,3.31
2023-03-14T20:08:43.178Z,2.96
2023-03-14T20:11:11.223Z,2.70
2023-03-14T20:13:39.454Z,2.42
2023-03-14T20:16:10.732Z,2.35
2023-03-14T20:18:39.758Z,2.21
2023-03-14T20:21:12.938Z,1.97
2023-03-14T20:23:44.108Z,1.80
2023-03-14T20:26:12.262Z,1.64
2023-03-14T20:28:42.780Z,1.49
2023-03-14T20:31:10.847Z,1.37
2023-03-14T20:33:38.921Z,1.25
2023-03-14T20:36:07.865Z,1.24
2023-03-14T20:38:36.844Z,1.26
2023-03-14T20:41:05.624Z,1.31
2023-03-14T20:43:34.096Z,1.30
2023-03-14T20:46:02.757Z,1.36
2023-03-14T20:48:31.636Z,1.38
2023-03-14T20:51:01.620Z,1.38
2023-03-14T20:53:29.515Z,1.37
2023-03-14T20:55:58.296Z,1.36
2023-03-14T20:58:26.283Z,1.35
2023-03-14T21:00:55.747Z,1.41
2023-03-14T21:03:24.703Z,1.40
2023-03-14T21:05:52.913Z,1.45
2023-03-14T21:08:23.852Z,1.50
2023-03-14T21:10:54.541Z,1.53
2023-03-14T21:13:24.250Z,1.56
2023-03-14T21:15:52.552Z,1.55
2023-03-14T21:18:23.037Z,1.57
2023-03-14T21:20:53.408Z,1.64
2023-03-14T21:23:26.386Z,1.58
2023-03-14T21:25:56.676Z,1.61
2023-03-14T21:28:25.138Z,1.62
2023-03-14T21:30:53.447Z,1.64
2023-03-14T21:33:21.373Z,1.65
2023-03-14T21:35:49.180Z,1.67
2023-03-14T21:38:16.923Z,1.75
2023-03-14T21:40:49.940Z,1.75
2023-03-14T21:43:21.830Z,1.73
2023-03-14T21:45:50.143Z,1.75
2023-03-14T21:48:18.499Z,1.75
2023-03-14T21:50:47.051Z,1.75
2023-03-14T21:53:15.398Z,1.76
2023-03-14T21:55:44.613Z,1.79
2023-03-14T21:58:16.067Z,1.82
2023-03-14T22:00:51.196Z,1.85
2023-03-14T22:03:24.339Z,1.90
2023-03-14T22:05:52.200Z,1.84
2023-03-14T22:08:20.636Z,1.89
2023-03-14T22:10:53.428Z,1.92
2023-03-14T22:13:23.736Z,1.89
2023-03-14T22:15:52.499Z,1.96
2023-03-14T22:18:20.338Z,1.94
2023-03-14T22:20:48.116Z,1.98
2023-03-14T22:23:16.012Z,1.96
2023-03-14T22:25:47.566Z,1.95
2023-03-14T22:28:15.709Z,1.98
2023-03-14T22:30:46.903Z,2.02
2023-03-14T22:33:15.502Z,1.97
2023-03-14T22:35:50.647Z,2.06
2023-03-14T22:38:19.209Z,2.14
2023-03-14T22:40:48.098Z,2.08
2023-03-14T22:43:16.517Z,2.04
2023-03-14T22:45:45.027Z,2.08
2023-03-14T22:48:13.018Z,2.05
2023-03-14T22:50:40.868Z,2.01
2023-03-14T22:53:08.735Z,1.99
2023-03-14T22:55:36.538Z,1.95
2023-03-14T22:58:04.386Z,1.98
2023-03-14T23:00:33.076Z,2.03
2023-03-14T23:03:01.135Z,2.07
2023-03-14T23:05:29.007Z,2.08
2023-03-14T23:07:56.809Z,2.04
2023-03-14T23:10:24.577Z,2.04
2023-03-14T23:12:54.257Z,2.01
2023-03-14T23:15:22.050Z,2.04
2023-03-14T23:17:49.796Z,2.02
2023-03-14T23:20:17.650Z,2.08
2023-03-14T23:22:46.061Z,2.06
2023-03-14T23:25:13.941Z,2.06
2023-03-14T23:27:46.334Z,2.07
2023-03-14T23:30:16.070Z,2.12
2023-03-14T23:32:43.886Z,2.04
2023-03-14T23:35:12.669Z,2.02
2023-03-14T23:37:41.285Z,1.99
2023-03-14T23:40:10.261Z,1.99
2023-03-14T23:42:38.837Z,1.98
2023-03-14T23:45:07.479Z,1.98
2023-03-14T23:47:35.351Z,2.05
2023-03-14T23:50:03.215Z,2.05
2023-03-14T23:52:30.954Z,2.02
2023-03-14T23:54:58.747Z,2.00
2023-03-14T23:57:26.489Z,1.94
2023-03-14T23:59:54.297Z,1.94
